Time;durP1;ratioP1;P1;durP2;ratioP2;P2;SDS_P1;SDS_P2;PMS_P1;PMS_P2;Temp;Humidity;BMP_temperature;BMP_pressure;BME280_temperature;BME280_humidity;BME280_pressure;Samples;Min_cycle;Max_cycle;Signal;HPM_P1;HPM_P2
2021/04/29 00:00:58;;;;;;;0.50;0.50;;;9.10;99.90;;;;;;2074210;28;20649;-64
2021/04/29 00:01:59;;;;;;;0.50;0.50;;;9.10;99.90;;;;;;2073629;28;20260;-64
2021/04/29 00:03:00;;;;;;;0.70;0.60;;;9.00;99.90;;;;;;2074057;28;20224;-65
2021/04/29 00:04:00;;;;;;;0.60;0.60;;;9.00;99.90;;;;;;2074091;28;20545;-65
2021/04/29 00:05:01;;;;;;;0.50;0.50;;;9.00;99.90;;;;;;2074040;28;20188;-64
2021/04/29 00:06:03;;;;;;;0.50;0.50;;;9.00;99.90;;;;;;2074163;28;20225;-65
2021/04/29 00:07:04;;;;;;;0.52;0.52;;;8.90;99.90;;;;;;2073979;28;20667;-65
2021/04/29 00:08:05;;;;;;;0.50;0.50;;;8.90;99.90;;;;;;2074197;28;20250;-65
2021/04/29 00:09:07;;;;;;;0.67;0.67;;;8.90;99.90;;;;;;2073883;28;20554;-64
2021/04/29 00:10:10;;;;;;;0.32;0.32;;;8.90;99.90;;;;;;2074126;28;20177;-65
2021/04/29 00:11:11;;;;;;;0.52;0.50;;;8.90;99.90;;;;;;2073946;28;20186;-65
2021/04/29 00:12:12;;;;;;;0.43;0.43;;;8.90;99.90;;;;;;2073898;28;20612;-65
2021/04/29 00:13:12;;;;;;;0.40;0.40;;;9.00;99.90;;;;;;2073772;28;20187;-65
2021/04/29 00:14:13;;;;;;;0.53;0.53;;;9.00;99.90;;;;;;2074171;28;20619;-65
2021/04/29 00:15:16;;;;;;;0.40;0.40;;;9.00;99.90;;;;;;2073453;28;20178;-65
2021/04/29 00:16:17;;;;;;;0.50;0.50;;;9.00;99.90;;;;;;2074048;28;20189;-65
2021/04/29 00:17:17;;;;;;;0.40;0.40;;;9.00;99.90;;;;;;2073793;28;20182;-65
2021/04/29 00:18:18;;;;;;;0.50;0.50;;;9.00;99.90;;;;;;2073865;28;20182;-65
2021/04/29 00:19:20;;;;;;;0.60;0.47;;;9.00;99.90;;;;;;2073735;28;20220;-65
2021/04/29 00:20:23;;;;;;;1.75;0.80;;;9.00;99.90;;;;;;2073995;28;20264;-65
2021/04/29 00:21:24;;;;;;;0.60;0.60;;;9.00;99.90;;;;;;2073636;28;20666;-64
2021/04/29 00:22:24;;;;;;;0.60;0.50;;;9.00;99.90;;;;;;2073910;28;20221;-65
2021/04/29 00:23:29;;;;;;;0.60;0.60;;;9.00;99.90;;;;;;2073606;28;20661;-64
2021/04/29 00:24:30;;;;;;;1.48;0.73;;;9.00;99.90;;;;;;2073897;28;20689;-64
2021/04/29 00:25:30;;;;;;;0.90;0.80;;;9.00;99.90;;;;;;2073749;28;20181;-65
2021/04/29 00:26:31;;;;;;;1.00;0.70;;;9.00;99.90;;;;;;2073903;28;20617;-65
2021/04/29 00:27:32;;;;;;;0.90;0.80;;;9.00;99.90;;;;;;2073086;28;20189;-65
2021/04/29 00:28:33;;;;;;;0.80;0.77;;;9.00;99.90;;;;;;2073364;28;20182;-65
2021/04/29 00:29:33;;;;;;;1.00;0.90;;;8.90;99.90;;;;;;2073589;28;20186;-64
2021/04/29 00:30:34;;;;;;;2.93;1.00;;;8.90;99.90;;;;;;2073837;28;20182;-64
2021/04/29 00:31:35;;;;;;;1.03;0.93;;;8.90;99.90;;;;;;2073553;28;20174;-65
2021/04/29 00:32:36;;;;;;;1.10;1.00;;;8.90;99.90;;;;;;2073758;28;20680;-65
2021/04/29 00:33:36;;;;;;;1.33;0.95;;;8.80;99.90;;;;;;2073846;28;20182;-65
2021/04/29 00:34:37;;;;;;;1.03;1.00;;;8.80;99.90;;;;;;2073659;28;20649;-64
2021/04/29 00:35:38;;;;;;;2.17;1.37;;;8.80;99.90;;;;;;2073651;28;20268;-66
2021/04/29 00:36:39;;;;;;;1.43;1.10;;;8.70;99.90;;;;;;2073682;28;20217;-64
2021/04/29 00:37:40;;;;;;;1.57;1.23;;;8.70;99.90;;;;;;2073676;28;20239;-65
2021/04/29 00:38:41;;;;;;;1.33;1.23;;;8.70;99.90;;;;;;2073747;28;20428;-64
2021/04/29 00:39:41;;;;;;;1.50;1.30;;;8.70;99.90;;;;;;2073389;28;20581;-64
2021/04/29 00:40:42;;;;;;;3.00;1.20;;;8.60;99.90;;;;;;2073776;28;20181;-64
2021/04/29 00:41:43;;;;;;;2.33;1.50;;;8.60;99.90;;;;;;2073533;28;20744;-64
2021/04/29 00:42:44;;;;;;;1.53;1.30;;;8.60;99.90;;;;;;2073778;28;20213;-64
2021/04/29 00:43:45;;;;;;;2.37;1.50;;;8.60;99.90;;;;;;2073663;28;20205;-64
2021/04/29 00:44:46;;;;;;;3.77;1.40;;;8.60;99.90;;;;;;2073817;28;20416;-65
2021/04/29 00:45:47;;;;;;;3.97;1.77;;;8.60;99.90;;;;;;2073476;28;20180;-65
2021/04/29 00:46:47;;;;;;;3.47;1.98;;;8.50;99.90;;;;;;2073694;28;20178;-65
2021/04/29 00:47:50;;;;;;;2.93;1.77;;;8.50;99.90;;;;;;2073566;28;20182;-65
2021/04/29 00:48:51;;;;;;;3.88;2.10;;;8.50;99.90;;;;;;2073635;28;20220;-65
2021/04/29 00:49:51;;;;;;;3.93;1.97;;;8.40;99.90;;;;;;2073678;28;20186;-64
2021/04/29 00:50:53;;;;;;;3.00;1.80;;;8.40;99.90;;;;;;2072915;28;20189;-65
2021/04/29 00:51:53;;;;;;;2.88;1.73;;;8.30;99.90;;;;;;2073021;28;20848;-64
2021/04/29 00:52:54;;;;;;;2.53;2.00;;;8.30;99.90;;;;;;2073585;28;20225;-65
2021/04/29 00:53:55;;;;;;;3.30;2.10;;;8.30;99.90;;;;;;2073783;28;20264;-65
2021/04/29 00:54:56;;;;;;;3.37;2.10;;;8.30;99.90;;;;;;2073552;28;20751;-65
2021/04/29 00:55:57;;;;;;;2.50;2.03;;;8.30;99.90;;;;;;2073518;28;20328;-64
2021/04/29 00:56:58;;;;;;;4.00;2.30;;;8.20;99.90;;;;;;2073464;28;20240;-64
2021/04/29 00:57:59;;;;;;;3.08;2.25;;;8.20;99.90;;;;;;2073663;28;20645;-64
2021/04/29 00:59:00;;;;;;;3.50;2.20;;;8.20;99.90;;;;;;2073477;28;20213;-64
2021/04/29 01:00:04;;;;;;;2.93;2.13;;;8.20;99.90;;;;;;2073521;28;20233;-64
2021/04/29 01:01:07;;;;;;;3.47;2.40;;;8.10;99.90;;;;;;2073495;28;20266;-64
2021/04/29 01:02:08;;;;;;;3.70;2.30;;;8.10;99.90;;;;;;2073299;28;20177;-64
2021/04/29 01:03:18;;;;;;;6.00;2.83;;;8.10;99.90;;;;;;2072827;28;20185;-64
2021/04/29 01:04:23;;;;;;;3.15;2.15;;;8.10;99.90;;;;;;2073129;28;20596;-65
2021/04/29 01:05:31;;;;;;;4.97;2.20;;;8.10;99.90;;;;;;2073523;28;20205;-64
2021/04/29 01:06:49;;;;;;;6.28;2.85;;;8.10;99.90;;;;;;2073549;28;20517;-64
2021/04/29 01:08:08;;;;;;;3.63;2.40;;;8.10;99.90;;;;;;2072782;28;20272;-65
2021/04/29 01:09:23;;;;;;;2.70;2.20;;;8.10;99.90;;;;;;2067194;28;20185;-64
2021/04/29 01:10:47;;;;;;;5.13;2.33;;;8.10;99.90;;;;;;2073264;28;20197;-65
2021/04/29 01:11:55;;;;;;;4.38;2.10;;;8.10;99.90;;;;;;2072724;28;20575;-65
2021/04/29 01:13:08;;;;;;;3.33;2.22;;;8.10;99.90;;;;;;2072787;28;20648;-65
2021/04/29 01:14:10;;;;;;;3.00;1.90;;;8.10;99.90;;;;;;2072906;28;20182;-65
2021/04/29 01:15:13;;;;;;;4.78;2.13;;;8.00;99.90;;;;;;2064941;28;20183;-65
2021/04/29 01:16:18;;;;;;;2.90;2.20;;;8.10;99.90;;;;;;2065111;28;20183;-65
2021/04/29 01:17:19;;;;;;;3.15;2.20;;;8.10;99.90;;;;;;2072781;28;20608;-64
2021/04/29 01:18:24;;;;;;;3.38;2.20;;;8.00;99.90;;;;;;2072780;28;20604;-64
2021/04/29 01:19:44;;;;;;;2.92;2.13;;;8.00;99.90;;;;;;2072693;28;20590;-65
2021/04/29 01:21:01;;;;;;;3.78;1.85;;;8.00;99.90;;;;;;2072813;28;20197;-65
2021/04/29 01:22:02;;;;;;;4.75;1.95;;;8.00;99.90;;;;;;2072602;28;20181;-65
2021/04/29 01:23:16;;;;;;;4.40;2.40;;;7.90;99.90;;;;;;2072773;28;20251;-65
2021/04/29 01:24:23;;;;;;;3.20;1.70;;;7.90;99.90;;;;;;2066454;28;20408;-65
2021/04/29 01:25:28;;;;;;;2.83;2.10;;;8.00;99.90;;;;;;2072826;28;20700;-65
2021/04/29 01:26:32;;;;;;;3.97;2.58;;;8.00;99.90;;;;;;2073171;28;20229;-65
2021/04/29 01:27:34;;;;;;;3.60;1.95;;;8.00;99.90;;;;;;2072819;28;20178;-65
2021/04/29 01:28:35;;;;;;;2.28;1.75;;;8.00;99.90;;;;;;2072747;28;20196;-65
2021/04/29 01:29:37;;;;;;;4.13;1.70;;;8.00;99.90;;;;;;2072610;28;20623;-65
2021/04/29 01:30:40;;;;;;;2.90;2.00;;;8.00;99.90;;;;;;2073390;28;20320;-65
2021/04/29 01:31:43;;;;;;;5.47;2.10;;;7.90;99.90;;;;;;2072522;28;20702;-65
2021/04/29 01:32:45;;;;;;;2.40;1.80;;;7.90;99.90;;;;;;2072724;28;20291;-65
2021/04/29 01:33:46;;;;;;;3.67;2.15;;;8.00;99.90;;;;;;2073368;28;20676;-64
2021/04/29 01:34:48;;;;;;;3.75;2.55;;;7.90;99.90;;;;;;2072829;28;20190;-65
2021/04/29 01:35:49;;;;;;;3.05;2.17;;;8.00;99.90;;;;;;2072814;28;20276;-65
2021/04/29 01:36:51;;;;;;;3.00;2.20;;;8.00;99.90;;;;;;2072876;28;20684;-65
2021/04/29 01:37:54;;;;;;;2.67;1.80;;;8.00;99.90;;;;;;2064774;28;20178;-64
2021/04/29 01:38:56;;;;;;;2.88;1.98;;;8.00;99.90;;;;;;2064969;28;20194;-65
2021/04/29 01:39:57;;;;;;;4.07;1.88;;;8.00;99.90;;;;;;2074787;28;20208;-65
2021/04/29 01:40:58;;;;;;;3.53;2.00;;;8.00;99.90;;;;;;2072795;28;20225;-65
2021/04/29 01:42:00;;;;;;;3.15;2.03;;;8.00;99.90;;;;;;2072474;28;20208;-65
2021/04/29 01:43:01;;;;;;;2.75;1.80;;;8.00;99.90;;;;;;2072754;28;20177;-64
2021/04/29 01:44:02;;;;;;;2.27;1.77;;;8.00;99.90;;;;;;2073293;28;20248;-64
2021/04/29 01:45:06;;;;;;;2.33;1.55;;;8.10;99.90;;;;;;2072510;28;20257;-64
2021/04/29 01:46:07;;;;;;;6.28;1.83;;;8.10;99.90;;;;;;2065061;28;20186;-64
2021/04/29 01:47:08;;;;;;;1.92;1.73;;;8.10;99.90;;;;;;2072696;28;20180;-64
2021/04/29 01:48:10;;;;;;;2.90;1.67;;;8.20;99.90;;;;;;2072819;28;20174;-65
2021/04/29 01:49:13;;;;;;;1.30;1.20;;;8.20;99.90;;;;;;2072845;28;20646;-64
2021/04/29 01:50:14;;;;;;;2.92;1.63;;;8.20;99.90;;;;;;2073276;28;20264;-65
2021/04/29 01:51:16;;;;;;;2.42;1.50;;;8.20;99.90;;;;;;2072805;28;20230;-64
2021/04/29 01:52:17;;;;;;;1.58;1.42;;;8.20;99.90;;;;;;2072664;28;20209;-64
2021/04/29 01:53:17;;;;;;;2.07;1.50;;;8.20;99.90;;;;;;2064450;28;20183;-65
2021/04/29 01:54:21;;;;;;;1.97;1.77;;;8.20;99.90;;;;;;2072633;28;20174;-64
2021/04/29 01:55:23;;;;;;;2.38;1.50;;;8.20;99.90;;;;;;2072562;28;20174;-64
2021/04/29 01:56:24;;;;;;;1.77;1.45;;;8.20;99.90;;;;;;2072667;28;20189;-64
2021/04/29 01:57:25;;;;;;;2.43;1.37;;;8.20;99.90;;;;;;2073181;28;20181;-65
2021/04/29 01:58:26;;;;;;;3.30;1.60;;;8.20;99.90;;;;;;2073446;28;20182;-64
2021/04/29 01:59:26;;;;;;;2.10;1.60;;;8.10;99.90;;;;;;2073098;28;20268;-65
2021/04/29 02:00:27;;;;;;;1.40;1.30;;;8.20;99.90;;;;;;2073244;28;20231;-65
2021/04/29 02:01:28;;;;;;;1.60;1.50;;;8.10;99.90;;;;;;2072126;28;20685;-64
2021/04/29 02:02:29;;;;;;;1.60;1.50;;;8.10;99.90;;;;;;2072604;28;20217;-65
2021/04/29 02:03:30;;;;;;;3.03;1.33;;;8.10;99.90;;;;;;2073085;28;20669;-64
2021/04/29 02:04:31;;;;;;;1.47;1.37;;;8.10;99.90;;;;;;2073104;28;20181;-65
2021/04/29 02:05:31;;;;;;;1.57;1.40;;;8.10;99.90;;;;;;2072913;28;20185;-64
2021/04/29 02:06:32;;;;;;;1.53;1.43;;;8.10;99.90;;;;;;2073243;28;20236;-65
2021/04/29 02:07:33;;;;;;;3.97;1.70;;;8.10;99.90;;;;;;2072895;28;20269;-65
2021/04/29 02:08:33;;;;;;;2.67;1.77;;;8.10;99.90;;;;;;2073074;28;20209;-65
2021/04/29 02:09:34;;;;;;;2.27;1.53;;;8.10;99.90;;;;;;2072991;28;20660;-64
2021/04/29 02:10:35;;;;;;;2.43;1.63;;;8.10;99.90;;;;;;2073174;28;20200;-65
2021/04/29 02:11:43;;;;;;;1.70;1.60;;;8.10;99.90;;;;;;2072903;28;20186;-64
2021/04/29 02:12:52;;;;;;;1.80;1.60;;;8.10;99.90;;;;;;2072834;28;20212;-64
2021/04/29 02:13:54;;;;;;;1.92;1.63;;;8.00;99.90;;;;;;2073100;28;20174;-65
2021/04/29 02:15:00;;;;;;;1.63;1.52;;;8.00;99.90;;;;;;2073191;28;20213;-65
2021/04/29 02:16:10;;;;;;;2.95;2.20;;;8.00;99.90;;;;;;2072423;28;20166;-65
2021/04/29 02:17:24;;;;;;;3.15;1.85;;;7.90;99.90;;;;;;2072563;28;20181;-65
2021/04/29 02:18:25;;;;;;;2.05;1.80;;;7.90;99.90;;;;;;2072255;28;20216;-64
2021/04/29 02:19:27;;;;;;;2.67;2.03;;;7.90;99.90;;;;;;2064168;28;20186;-64
2021/04/29 02:20:31;;;;;;;2.67;2.05;;;7.90;99.90;;;;;;2064351;28;20182;-64
2021/04/29 02:21:33;;;;;;;3.03;2.10;;;7.90;99.90;;;;;;2072163;28;20192;-64
2021/04/29 02:22:36;;;;;;;2.70;2.20;;;7.80;99.90;;;;;;2066508;28;20216;-65
2021/04/29 02:23:37;;;;;;;2.22;1.73;;;7.80;99.90;;;;;;2080400;28;20267;-64
2021/04/29 02:24:38;;;;;;;2.30;1.93;;;7.80;99.90;;;;;;2080985;28;20188;-65
2021/04/29 02:25:42;;;;;;;5.20;2.53;;;7.80;99.90;;;;;;2080375;28;20621;-64
2021/04/29 02:26:43;;;;;;;2.28;2.00;;;7.80;99.90;;;;;;2072659;28;20193;-64
2021/04/29 02:27:44;;;;;;;4.97;2.17;;;7.80;99.90;;;;;;2080518;28;20192;-64
2021/04/29 02:28:45;;;;;;;2.90;2.23;;;7.80;99.90;;;;;;2080953;28;20227;-64
2021/04/29 02:29:47;;;;;;;3.17;1.95;;;7.80;99.90;;;;;;2080546;28;20189;-64
2021/04/29 02:30:49;;;;;;;3.33;2.22;;;7.80;99.90;;;;;;2080477;28;20193;-64
2021/04/29 02:31:50;;;;;;;2.92;2.22;;;7.80;99.90;;;;;;2080371;28;20192;-65
2021/04/29 02:32:51;;;;;;;2.57;2.37;;;7.80;99.90;;;;;;2072423;28;20271;-64
2021/04/29 02:33:52;;;;;;;2.60;2.03;;;7.80;99.90;;;;;;2080530;28;20264;-65
2021/04/29 02:34:53;;;;;;;2.95;2.50;;;7.80;99.90;;;;;;2080940;28;20188;-64
2021/04/29 02:35:55;;;;;;;3.63;2.20;;;7.80;99.90;;;;;;2080495;28;20219;-64
2021/04/29 02:36:56;;;;;;;3.45;2.20;;;7.80;99.90;;;;;;2080516;28;20611;-64
2021/04/29 02:37:57;;;;;;;3.83;2.22;;;7.80;99.90;;;;;;2081115;28;20189;-64
2021/04/29 02:38:59;;;;;;;2.95;2.55;;;7.80;99.90;;;;;;2080983;28;20732;-64
2021/04/29 02:40:01;;;;;;;3.13;2.47;;;7.80;99.90;;;;;;2080435;28;20255;-64
2021/04/29 02:41:04;;;;;;;3.03;2.50;;;7.80;99.90;;;;;;2080503;28;20204;-64
2021/04/29 02:42:06;;;;;;;3.03;2.35;;;7.70;99.90;;;;;;2080979;28;20172;-64
2021/04/29 02:43:11;;;;;;;3.17;2.35;;;7.70;99.90;;;;;;2080556;28;20264;-64
2021/04/29 02:44:12;;;;;;;2.90;2.30;;;7.70;99.90;;;;;;2080870;28;20169;-64
2021/04/29 02:45:16;;;;;;;2.57;2.20;;;7.70;99.90;;;;;;2081188;28;20259;-64
2021/04/29 02:46:18;;;;;;;2.90;2.60;;;7.70;99.90;;;;;;2081259;28;20177;-64
2021/04/29 02:47:20;;;;;;;3.92;2.30;;;7.70;99.90;;;;;;2080289;28;20235;-64
2021/04/29 02:48:21;;;;;;;3.15;2.40;;;7.60;99.90;;;;;;2072425;28;20194;-64
2021/04/29 02:49:23;;;;;;;3.15;2.55;;;7.60;99.90;;;;;;2072404;28;20241;-64
2021/04/29 02:50:25;;;;;;;6.40;2.42;;;7.60;99.90;;;;;;2072500;28;20188;-64
2021/04/29 02:51:26;;;;;;;3.35;2.60;;;7.60;99.90;;;;;;2080292;28;20181;-65
2021/04/29 02:52:27;;;;;;;4.10;2.70;;;7.60;99.90;;;;;;2081280;28;20205;-64
2021/04/29 02:53:29;;;;;;;3.30;2.85;;;7.50;99.90;;;;;;2080818;28;20179;-64
2021/04/29 02:54:30;;;;;;;3.22;2.40;;;7.60;99.90;;;;;;2081419;28;20220;-64
2021/04/29 02:55:31;;;;;;;5.22;2.53;;;7.60;99.90;;;;;;2081233;28;20620;-64
2021/04/29 02:56:33;;;;;;;3.17;2.73;;;7.60;99.90;;;;;;2080764;28;20233;-64
2021/04/29 02:57:35;;;;;;;2.72;2.40;;;7.60;99.90;;;;;;2080508;28;20185;-64
2021/04/29 02:58:47;;;;;;;3.33;3.00;;;7.60;99.90;;;;;;2081232;28;20267;-64
2021/04/29 02:59:48;;;;;;;6.55;3.05;;;7.60;99.90;;;;;;2081066;28;20555;-64
2021/04/29 03:00:51;;;;;;;3.25;2.50;;;7.60;99.90;;;;;;2072444;28;20189;-65
2021/04/29 03:01:52;;;;;;;3.20;2.65;;;7.60;99.90;;;;;;2072471;28;20684;-65
2021/04/29 03:02:52;;;;;;;6.17;2.60;;;7.60;99.90;;;;;;2081190;28;20201;-65
2021/04/29 03:03:53;;;;;;;3.83;2.53;;;7.60;99.90;;;;;;2080974;28;20212;-65
2021/04/29 03:04:54;;;;;;;5.73;3.40;;;7.50;99.90;;;;;;2080503;28;20217;-65
2021/04/29 03:05:55;;;;;;;4.23;2.87;;;7.50;99.90;;;;;;2080484;28;20265;-65
2021/04/29 03:06:57;;;;;;;3.35;3.03;;;7.50;99.90;;;;;;2080505;28;20703;-65
2021/04/29 03:07:58;;;;;;;4.28;2.95;;;7.50;99.90;;;;;;2080713;28;20181;-65
2021/04/29 03:08:59;;;;;;;5.70;3.13;;;7.50;99.90;;;;;;2081069;28;20184;-65
2021/04/29 03:10:00;;;;;;;4.00;2.93;;;7.50;99.90;;;;;;2080614;28;20180;-65
2021/04/29 03:11:02;;;;;;;4.67;2.93;;;7.50;99.90;;;;;;2080613;28;20250;-65
2021/04/29 03:12:04;;;;;;;3.00;2.70;;;7.50;99.90;;;;;;2080838;28;20177;-65
2021/04/29 03:13:05;;;;;;;3.10;2.80;;;7.60;99.90;;;;;;2080900;28;20201;-65
2021/04/29 03:14:05;;;;;;;3.60;2.80;;;7.60;99.90;;;;;;2081205;28;20181;-65
2021/04/29 03:15:08;;;;;;;3.30;3.00;;;7.60;99.90;;;;;;2081022;28;20177;-65
2021/04/29 03:16:09;;;;;;;3.15;2.83;;;7.60;99.90;;;;;;2081103;28;20879;-65
2021/04/29 03:17:10;;;;;;;4.07;2.53;;;7.60;99.90;;;;;;2080964;28;20184;-65
2021/04/29 03:18:10;;;;;;;4.47;3.03;;;7.60;99.90;;;;;;2080509;28;20188;-65
2021/04/29 03:19:11;;;;;;;5.80;3.50;;;7.50;99.90;;;;;;2081024;28;20185;-65
2021/04/29 03:20:12;;;;;;;4.63;3.10;;;7.50;99.90;;;;;;2080616;28;20302;-65
2021/04/29 03:21:13;;;;;;;3.10;2.80;;;7.60;99.90;;;;;;2071992;28;20218;-65
2021/04/29 03:22:14;;;;;;;3.67;3.07;;;7.60;99.90;;;;;;2080322;28;20181;-65
2021/04/29 03:23:15;;;;;;;3.47;3.10;;;7.60;99.90;;;;;;2080858;28;20558;-65
2021/04/29 03:24:16;;;;;;;4.27;2.97;;;7.60;99.90;;;;;;2080975;28;20177;-65
2021/04/29 03:25:16;;;;;;;3.40;3.10;;;7.60;99.90;;;;;;2080875;28;20205;-65
2021/04/29 03:26:17;;;;;;;4.07;3.00;;;7.60;99.90;;;;;;2081041;28;20263;-65
2021/04/29 03:27:18;;;;;;;6.13;3.10;;;7.60;99.90;;;;;;2080963;28;20586;-65
2021/04/29 03:28:19;;;;;;;4.53;3.45;;;7.60;99.90;;;;;;2080751;28;20257;-65
2021/04/29 03:29:20;;;;;;;4.90;3.33;;;7.50;99.90;;;;;;2080893;28;20541;-65
2021/04/29 03:30:21;;;;;;;3.20;2.90;;;7.60;99.90;;;;;;2080869;28;20239;-65
2021/04/29 03:31:22;;;;;;;3.72;3.33;;;7.50;99.90;;;;;;2080797;28;20185;-64
2021/04/29 03:32:23;;;;;;;3.37;3.07;;;7.50;99.90;;;;;;2080930;28;20576;-65
2021/04/29 03:33:24;;;;;;;4.30;3.30;;;7.50;99.90;;;;;;2080711;28;20189;-65
2021/04/29 03:34:24;;;;;;;4.03;3.30;;;7.50;99.90;;;;;;2080279;28;20468;-65
2021/04/29 03:35:25;;;;;;;3.47;2.97;;;7.60;99.90;;;;;;2080168;28;20188;-65
2021/04/29 03:36:26;;;;;;;4.47;3.13;;;7.50;99.90;;;;;;2081048;28;20204;-65
2021/04/29 03:37:27;;;;;;;3.87;3.00;;;7.60;99.90;;;;;;2080991;28;20718;-65
2021/04/29 03:38:28;;;;;;;4.03;2.83;;;7.60;99.90;;;;;;2081147;28;20177;-65
2021/04/29 03:39:29;;;;;;;5.07;3.10;;;7.60;99.90;;;;;;2080787;28;20177;-65
2021/04/29 03:40:29;;;;;;;6.25;3.20;;;7.60;99.90;;;;;;2081019;28;20250;-65
2021/04/29 03:41:31;;;;;;;3.57;3.27;;;7.60;99.90;;;;;;2080636;28;20181;-65
2021/04/29 03:42:32;;;;;;;4.13;3.13;;;7.60;99.90;;;;;;2080945;28;20200;-65
2021/04/29 03:43:32;;;;;;;4.43;3.65;;;7.50;99.90;;;;;;2080819;28;20185;-65
2021/04/29 03:44:39;;;;;;;4.37;3.20;;;7.60;99.90;;;;;;2077601;28;20210;-65
2021/04/29 03:45:40;;;;;;;7.43;3.53;;;7.50;99.90;;;;;;2080746;28;20174;-65
2021/04/29 03:46:40;;;;;;;4.17;3.30;;;7.50;99.90;;;;;;2080913;28;20211;-65
2021/04/29 03:47:41;;;;;;;3.73;3.03;;;7.50;99.90;;;;;;2080845;28;20264;-65
2021/04/29 03:48:42;;;;;;;3.97;3.57;;;7.50;99.90;;;;;;2080860;28;20181;-65
2021/04/29 03:49:42;;;;;;;5.30;3.60;;;7.50;99.90;;;;;;2080676;28;20188;-64
2021/04/29 03:50:43;;;;;;;7.83;3.73;;;7.60;99.90;;;;;;2081822;28;20231;-65
2021/04/29 03:51:44;;;;;;;4.38;3.55;;;7.60;99.90;;;;;;2081510;28;20282;-65
2021/04/29 03:52:45;;;;;;;4.63;3.37;;;7.50;99.90;;;;;;2081714;28;20208;-65
2021/04/29 03:53:46;;;;;;;4.57;3.33;;;7.60;99.90;;;;;;2081817;28;20224;-65
2021/04/29 03:54:46;;;;;;;5.33;3.40;;;7.50;99.90;;;;;;2081679;28;20185;-65
2021/04/29 03:55:47;;;;;;;6.30;3.57;;;7.50;99.90;;;;;;2082140;28;20188;-65
2021/04/29 03:56:48;;;;;;;7.47;3.97;;;7.50;99.90;;;;;;2082310;28;20181;-65
2021/04/29 03:57:48;;;;;;;5.00;3.40;;;7.50;99.90;;;;;;2082457;28;20177;-65
2021/04/29 03:58:49;;;;;;;4.30;3.23;;;7.50;99.90;;;;;;2082357;28;20185;-65
2021/04/29 03:59:50;;;;;;;4.67;3.60;;;7.50;99.90;;;;;;2082356;28;20663;-65
2021/04/29 04:00:51;;;;;;;4.13;3.60;;;7.40;99.90;;;;;;2082283;28;20189;-64
2021/04/29 04:01:52;;;;;;;5.72;3.83;;;7.50;99.90;;;;;;2082315;28;20212;-65
2021/04/29 04:02:52;;;;;;;5.43;3.43;;;7.50;99.90;;;;;;2082191;28;20208;-65
2021/04/29 04:03:53;;;;;;;5.23;3.83;;;7.50;99.90;;;;;;2082272;28;20207;-64
2021/04/29 04:04:54;;;;;;;4.00;3.60;;;7.40;99.90;;;;;;2082289;28;20239;-64
2021/04/29 04:05:54;;;;;;;5.73;4.10;;;7.50;99.90;;;;;;2082273;28;20173;-64
2021/04/29 04:06:55;;;;;;;6.03;3.80;;;7.40;99.90;;;;;;2082160;28;20259;-64
2021/04/29 04:07:56;;;;;;;5.23;4.10;;;7.40;99.90;;;;;;2082427;28;20183;-65
2021/04/29 04:08:57;;;;;;;6.53;4.50;;;7.50;99.90;;;;;;2081517;28;20619;-65
2021/04/29 04:09:57;;;;;;;4.83;4.00;;;7.40;99.90;;;;;;2081724;28;20192;-64
2021/04/29 04:10:58;;;;;;;6.07;4.57;;;7.40;99.90;;;;;;2082198;28;20189;-64
2021/04/29 04:11:59;;;;;;;4.87;4.03;;;7.40;99.90;;;;;;2081962;28;20735;-64
2021/04/29 04:12:59;;;;;;;5.70;3.83;;;7.40;99.90;;;;;;2082120;28;20292;-64
2021/04/29 04:14:00;;;;;;;5.67;4.20;;;7.40;99.90;;;;;;2082450;28;20189;-64
2021/04/29 04:15:02;;;;;;;6.87;4.03;;;7.50;99.90;;;;;;2082373;28;20234;-64
2021/04/29 04:16:03;;;;;;;4.80;3.90;;;7.40;99.90;;;;;;2081815;28;20390;-65
2021/04/29 04:17:04;;;;;;;7.28;4.25;;;7.40;99.90;;;;;;2081663;28;20219;-65
2021/04/29 04:18:05;;;;;;;7.63;4.33;;;7.40;99.90;;;;;;2082170;28;20169;-64
2021/04/29 04:19:06;;;;;;;5.97;4.50;;;7.40;99.90;;;;;;2082442;28;20683;-64
2021/04/29 04:20:07;;;;;;;4.43;3.87;;;7.40;99.90;;;;;;2082323;28;20203;-64
2021/04/29 04:21:08;;;;;;;4.65;4.10;;;7.40;99.90;;;;;;2081877;28;20186;-64
2021/04/29 04:22:09;;;;;;;5.82;4.00;;;7.40;99.90;;;;;;2081796;28;20173;-64
2021/04/29 04:23:10;;;;;;;6.43;4.20;;;7.40;99.90;;;;;;2081880;28;20177;-64
2021/04/29 04:24:11;;;;;;;5.40;4.35;;;7.40;99.90;;;;;;2082027;28;20552;-64
2021/04/29 04:25:12;;;;;;;4.93;3.93;;;7.40;99.90;;;;;;2081998;28;20184;-64
2021/04/29 04:26:13;;;;;;;5.95;4.15;;;7.40;99.90;;;;;;2082054;28;20260;-64
2021/04/29 04:27:14;;;;;;;7.13;3.85;;;7.40;99.90;;;;;;2081822;28;20177;-64
2021/04/29 04:28:15;;;;;;;6.10;3.97;;;7.40;99.90;;;;;;2081773;28;20173;-64
2021/04/29 04:29:15;;;;;;;5.60;4.83;;;7.40;99.90;;;;;;2081810;28;20177;-64
2021/04/29 04:30:16;;;;;;;5.70;4.97;;;7.40;99.90;;;;;;2082042;28;20185;-65
2021/04/29 04:31:17;;;;;;;9.45;5.50;;;7.40;99.90;;;;;;2081801;28;20188;-65
2021/04/29 04:32:18;;;;;;;14.87;6.10;;;7.40;99.90;;;;;;2082024;28;20291;-64
2021/04/29 04:33:19;;;;;;;8.93;5.93;;;7.40;99.90;;;;;;2081974;28;20260;-64
2021/04/29 04:34:20;;;;;;;9.47;6.40;;;7.40;99.90;;;;;;2082011;28;20276;-65
2021/04/29 04:35:20;;;;;;;7.80;6.30;;;7.40;99.90;;;;;;2081563;28;20173;-64
2021/04/29 04:36:21;;;;;;;8.20;4.93;;;7.40;99.90;;;;;;2081475;28;20445;-65
2021/04/29 04:37:22;;;;;;;8.90;5.50;;;7.50;99.90;;;;;;2082281;28;20919;-64
2021/04/29 04:38:23;;;;;;;8.90;5.60;;;7.50;99.90;;;;;;2082028;28;20189;-64
2021/04/29 04:39:25;;;;;;;7.63;5.77;;;7.50;99.90;;;;;;2082040;28;20189;-64
2021/04/29 04:40:25;;;;;;;9.68;6.07;;;7.40;99.90;;;;;;2081914;28;20193;-64
2021/04/29 04:41:27;;;;;;;6.43;5.30;;;7.50;99.90;;;;;;2082028;28;20557;-64
2021/04/29 04:42:28;;;;;;;8.30;5.50;;;7.50;99.90;;;;;;2082131;28;20193;-64
2021/04/29 04:43:29;;;;;;;8.45;6.57;;;7.50;99.90;;;;;;2082039;28;20652;-64
2021/04/29 04:44:30;;;;;;;7.80;5.73;;;7.60;99.90;;;;;;2082004;28;20260;-64
2021/04/29 04:45:31;;;;;;;10.10;6.10;;;7.50;99.90;;;;;;2082167;28;20196;-64
2021/04/29 04:46:32;;;;;;;8.57;6.50;;;7.60;99.90;;;;;;2081912;28;20223;-65
2021/04/29 04:47:32;;;;;;;9.43;6.80;;;7.60;99.90;;;;;;2082061;28;20181;-65
2021/04/29 04:48:33;;;;;;;12.30;6.87;;;7.60;99.90;;;;;;2081867;28;20230;-64
2021/04/29 04:49:34;;;;;;;10.80;7.20;;;7.60;99.90;;;;;;2081939;28;20184;-65
2021/04/29 04:50:34;;;;;;;8.00;7.20;;;7.70;99.90;;;;;;2081818;28;20188;-64
2021/04/29 04:51:35;;;;;;;8.93;6.73;;;7.70;99.90;;;;;;2081900;28;20550;-64
2021/04/29 04:52:36;;;;;;;9.30;6.67;;;7.70;99.90;;;;;;2081896;28;20205;-64
2021/04/29 04:53:37;;;;;;;10.45;7.25;;;7.80;99.90;;;;;;2082088;28;20181;-64
2021/04/29 04:54:38;;;;;;;9.70;7.03;;;7.80;99.90;;;;;;2081165;28;20624;-64
2021/04/29 04:55:46;;;;;;;9.07;7.13;;;7.80;99.90;;;;;;2081426;28;20682;-64
2021/04/29 04:56:47;;;;;;;9.05;7.22;;;7.80;99.90;;;;;;2082072;28;20257;-64
2021/04/29 04:57:48;;;;;;;9.60;7.60;;;7.80;99.90;;;;;;2082300;28;20221;-64
2021/04/29 04:58:48;;;;;;;10.63;7.17;;;7.90;99.90;;;;;;2082007;28;20231;-64
2021/04/29 04:59:49;;;;;;;11.00;7.63;;;7.80;99.90;;;;;;2081847;28;20197;-64
2021/04/29 05:00:50;;;;;;;11.20;7.70;;;7.80;99.90;;;;;;2082026;28;20551;-64
2021/04/29 05:01:50;;;;;;;12.40;7.67;;;7.80;99.90;;;;;;2081725;28;20189;-64
2021/04/29 05:02:51;;;;;;;9.17;6.90;;;7.90;99.90;;;;;;2081923;28;20573;-64
2021/04/29 05:03:53;;;;;;;9.20;7.53;;;7.90;99.90;;;;;;2081987;28;20177;-64
2021/04/29 05:04:54;;;;;;;7.75;6.43;;;7.90;99.90;;;;;;2081189;28;20189;-64
2021/04/29 05:05:55;;;;;;;11.90;7.97;;;7.90;99.90;;;;;;2073115;28;20680;-65
2021/04/29 05:06:56;;;;;;;10.38;8.05;;;7.90;99.90;;;;;;2073258;28;20190;-64
2021/04/29 05:08:00;;;;;;;9.25;7.93;;;7.90;99.90;;;;;;2081104;28;20750;-64
2021/04/29 05:09:02;;;;;;;12.43;8.05;;;7.90;99.90;;;;;;2081792;28;20225;-64
2021/04/29 05:10:04;;;;;;;9.60;7.70;;;8.00;99.90;;;;;;2081871;28;20660;-65
2021/04/29 05:11:04;;;;;;;11.27;8.55;;;8.00;99.90;;;;;;2081664;28;20192;-65
2021/04/29 05:12:06;;;;;;;10.47;8.10;;;8.00;99.90;;;;;;2081340;28;20647;-65
2021/04/29 05:13:07;;;;;;;13.23;9.40;;;8.00;99.90;;;;;;2081709;28;20181;-65
2021/04/29 05:14:07;;;;;;;10.33;7.87;;;7.90;99.90;;;;;;2100027;22;20195;-64
2021/04/29 05:15:09;;;;;;;10.87;8.60;;;7.80;99.90;;;;;;2098696;28;20172;-65
2021/04/29 05:16:09;;;;;;;12.80;9.25;;;7.80;99.90;;;;;;2098485;28;20200;-63
2021/04/29 05:17:10;;;;;;;13.30;8.97;;;7.90;99.90;;;;;;2098686;28;20190;-64
2021/04/29 05:18:11;;;;;;;11.73;9.37;;;7.90;99.90;;;;;;2098428;28;20236;-64
2021/04/29 05:19:11;;;;;;;12.97;9.07;;;8.00;99.90;;;;;;2098480;28;20178;-64
2021/04/29 05:20:13;;;;;;;12.40;8.50;;;8.00;99.90;;;;;;2098332;28;20208;-64
2021/04/29 05:21:14;;;;;;;11.73;8.40;;;8.00;99.90;;;;;;2098379;28;20180;-64
2021/04/29 05:22:15;;;;;;;12.32;8.30;;;8.00;99.90;;;;;;2106399;28;20215;-64
2021/04/29 05:23:16;;;;;;;10.68;8.45;;;8.00;99.90;;;;;;2106350;28;20621;-64
2021/04/29 05:24:17;;;;;;;11.57;8.80;;;8.10;99.90;;;;;;2093459;28;20215;-64
2021/04/29 05:25:20;;;;;;;12.23;8.57;;;8.10;99.90;;;;;;2090537;28;20168;-64
2021/04/29 05:26:20;;;;;;;12.75;7.78;;;8.10;99.90;;;;;;2090277;28;20168;-64